sensor_id;sensor_type;location;lat;lon;timestamp;temperature;humidity
33269;DHT22;19640;50.944;5.260;2023-04-10T00:00:08;8.90;99.90
33269;DHT22;19640;50.944;5.260;2023-04-10T00:02:35;8.80;99.90
33269;DHT22;19640;50.944;5.260;2023-04-10T00:05:01;8.70;99.90
33269;DHT22;19640;50.944;5.260;2023-04-10T00:07:27;8.80;99.90
33269;DHT22;19640;50.944;5.260;2023-04-10T00:09:53;8.90;99.90
33269;DHT22;19640;50.944;5.260;2023-04-10T00:12:19;8.90;99.90
33269;DHT22;19640;50.944;5.260;2023-04-10T00:14:45;9.20;99.90
33269;DHT22;19640;50.944;5.260;2023-04-10T00:17:10;9.20;99.90
33269;DHT22;19640;50.944;5.260;2023-04-10T00:19:36;9.10;99.90
33269;DHT22;19640;50.944;5.260;2023-04-10T00:22:02;9.00;99.90
33269;DHT22;19640;50.944;5.260;2023-04-10T00:24:28;9.10;99.90
33269;DHT22;19640;50.944;5.260;2023-04-10T00:26:53;9.30;99.90
33269;DHT22;19640;50.944;5.260;2023-04-10T00:29:21;9.40;99.90
33269;DHT22;19640;50.944;5.260;2023-04-10T00:31:46;9.30;99.90
33269;DHT22;19640;50.944;5.260;2023-04-10T00:34:12;9.20;99.90
33269;DHT22;19640;50.944;5.260;2023-04-10T00:36:38;9.10;99.90
33269;DHT22;19640;50.944;5.260;2023-04-10T00:39:04;9.10;99.90
33269;DHT22;19640;50.944;5.260;2023-04-10T00:41:29;9.10;99.90
33269;DHT22;19640;50.944;5.260;2023-04-10T00:43:56;8.90;99.90
33269;DHT22;19640;50.944;5.260;2023-04-10T00:46:22;8.80;99.90
33269;DHT22;19640;50.944;5.260;2023-04-10T00:48:50;8.50;99.90
33269;DHT22;19640;50.944;5.260;2023-04-10T00:51:17;8.50;99.90
33269;DHT22;19640;50.944;5.260;2023-04-10T00:53:47;8.50;99.90
33269;DHT22;19640;50.944;5.260;2023-04-10T00:56:16;8.40;99.90
33269;DHT22;19640;50.944;5.260;2023-04-10T00:58:42;8.30;99.90
33269;DHT22;19640;50.944;5.260;2023-04-10T01:01:08;8.10;99.90
33269;DHT22;19640;50.944;5.260;2023-04-10T01:03:35;8.00;99.90
33269;DHT22;19640;50.944;5.260;2023-04-10T01:11:54;7.60;99.90
33269;DHT22;19640;50.944;5.260;2023-04-10T01:14:32;7.60;99.90
33269;DHT22;19640;50.944;5.260;2023-04-10T01:17:06;7.40;99.90
33269;DHT22;19640;50.944;5.260;2023-04-10T01:22:13;7.30;99.90
33269;DHT22;19640;50.944;5.260;2023-04-10T01:25:08;7.30;99.90
33269;DHT22;19640;50.944;5.260;2023-04-10T01:30:13;7.40;99.90
33269;DHT22;19640;50.944;5.260;2023-04-10T01:32:42;7.20;99.90
33269;DHT22;19640;50.944;5.260;2023-04-10T01:35:09;7.10;99.90
33269;DHT22;19640;50.944;5.260;2023-04-10T01:37:39;7.30;99.90
33269;DHT22;19640;50.944;5.260;2023-04-10T01:40:08;7.50;99.90
33269;DHT22;19640;50.944;5.260;2023-04-10T01:42:41;7.60;99.90
33269;DHT22;19640;50.944;5.260;2023-04-10T01:45:13;7.60;99.90
33269;DHT22;19640;50.944;5.260;2023-04-10T01:47:39;7.80;99.90
33269;DHT22;19640;50.944;5.260;2023-04-10T01:50:05;7.80;99.90
33269;DHT22;19640;50.944;5.260;2023-04-10T01:52:32;7.80;99.90
33269;DHT22;19640;50.944;5.260;2023-04-10T01:54:58;7.90;99.90
33269;DHT22;19640;50.944;5.260;2023-04-10T01:57:25;7.80;99.90
33269;DHT22;19640;50.944;5.260;2023-04-10T01:59:51;7.80;99.90
33269;DHT22;19640;50.944;5.260;2023-04-10T02:02:17;7.70;99.90
33269;DHT22;19640;50.944;5.260;2023-04-10T02:04:42;7.80;99.90
33269;DHT22;19640;50.944;5.260;2023-04-10T02:07:19;7.70;99.90
33269;DHT22;19640;50.944;5.260;2023-04-10T02:09:53;7.60;99.90
33269;DHT22;19640;50.944;5.260;2023-04-10T02:12:28;7.50;99.90
33269;DHT22;19640;50.944;5.260;2023-04-10T02:14:58;7.60;99.90
33269;DHT22;19640;50.944;5.260;2023-04-10T02:17:27;7.60;99.90
33269;DHT22;19640;50.944;5.260;2023-04-10T02:19:54;7.70;99.90
33269;DHT22;19640;50.944;5.260;2023-04-10T02:22:22;7.70;99.90
33269;DHT22;19640;50.944;5.260;2023-04-10T02:24:48;7.60;99.90
33269;DHT22;19640;50.944;5.260;2023-04-10T02:27:14;7.60;99.90
33269;DHT22;19640;50.944;5.260;2023-04-10T02:29:40;7.80;99.90
33269;DHT22;19640;50.944;5.260;2023-04-10T02:32:06;7.80;99.90
33269;DHT22;19640;50.944;5.260;2023-04-10T02:34:32;7.80;99.90
33269;DHT22;19640;50.944;5.260;2023-04-10T02:36:57;7.80;99.90
33269;DHT22;19640;50.944;5.260;2023-04-10T02:39:23;7.80;99.90
33269;DHT22;19640;50.944;5.260;2023-04-10T02:41:49;8.00;99.90
33269;DHT22;19640;50.944;5.260;2023-04-10T02:44:15;7.90;99.90
33269;DHT22;19640;50.944;5.260;2023-04-10T02:46:40;7.90;99.90
33269;DHT22;19640;50.944;5.260;2023-04-10T02:49:06;7.90;99.90
33269;DHT22;19640;50.944;5.260;2023-04-10T02:51:35;7.90;99.90
33269;DHT22;19640;50.944;5.260;2023-04-10T02:54:01;8.00;99.90
33269;DHT22;19640;50.944;5.260;2023-04-10T02:56:27;8.10;99.90
33269;DHT22;19640;50.944;5.260;2023-04-10T02:58:53;8.00;99.90
33269;DHT22;19640;50.944;5.260;2023-04-10T03:01:19;8.00;99.90
33269;DHT22;19640;50.944;5.260;2023-04-10T03:03:45;8.00;99.90
33269;DHT22;19640;50.944;5.260;2023-04-10T03:06:10;7.70;99.90
33269;DHT22;19640;50.944;5.260;2023-04-10T03:08:36;7.70;99.90
33269;DHT22;19640;50.944;5.260;2023-04-10T03:11:02;7.70;99.90
33269;DHT22;19640;50.944;5.260;2023-04-10T03:13:27;7.80;99.90
33269;DHT22;19640;50.944;5.260;2023-04-10T03:15:53;7.90;99.90
33269;DHT22;19640;50.944;5.260;2023-04-10T03:18:19;8.10;99.90
33269;DHT22;19640;50.944;5.260;2023-04-10T03:20:44;8.30;99.90
33269;DHT22;19640;50.944;5.260;2023-04-10T03:23:10;8.30;99.90
33269;DHT22;19640;50.944;5.260;2023-04-10T03:25:36;8.30;99.90
33269;DHT22;19640;50.944;5.260;2023-04-10T03:28:02;8.40;99.90
33269;DHT22;19640;50.944;5.260;2023-04-10T03:30:28;8.00;99.90
33269;DHT22;19640;50.944;5.260;2023-04-10T03:32:54;7.80;99.90
33269;DHT22;19640;50.944;5.260;2023-04-10T03:35:19;7.70;99.90
33269;DHT22;19640;50.944;5.260;2023-04-10T03:37:45;7.70;99.90
33269;DHT22;19640;50.944;5.260;2023-04-10T03:40:11;7.70;99.90
33269;DHT22;19640;50.944;5.260;2023-04-10T03:42:37;7.70;99.90
33269;DHT22;19640;50.944;5.260;2023-04-10T03:45:03;7.80;99.90
33269;DHT22;19640;50.944;5.260;2023-04-10T03:47:33;7.80;99.90
33269;DHT22;19640;50.944;5.260;2023-04-10T03:49:59;7.90;99.90
33269;DHT22;19640;50.944;5.260;2023-04-10T03:52:25;7.90;99.90
33269;DHT22;19640;50.944;5.260;2023-04-10T03:54:53;7.90;99.90
33269;DHT22;19640;50.944;5.260;2023-04-10T03:57:19;8.00;99.90
33269;DHT22;19640;50.944;5.260;2023-04-10T03:59:46;8.20;99.90
33269;DHT22;19640;50.944;5.260;2023-04-10T04:02:12;8.20;99.90
33269;DHT22;19640;50.944;5.260;2023-04-10T04:04:38;8.10;99.90
33269;DHT22;19640;50.944;5.260;2023-04-10T04:07:04;8.10;99.90
33269;DHT22;19640;50.944;5.260;2023-04-10T04:09:30;8.00;99.90
33269;DHT22;19640;50.944;5.260;2023-04-10T04:11:55;8.10;99.90
33269;DHT22;19640;50.944;5.260;2023-04-10T04:14:22;8.10;99.90
33269;DHT22;19640;50.944;5.260;2023-04-10T04:16:48;7.90;99.90
33269;DHT22;19640;50.944;5.260;2023-04-10T04:19:14;7.80;99.90
33269;DHT22;19640;50.944;5.260;2023-04-10T04:21:39;7.80;99.90
33269;DHT22;19640;50.944;5.260;2023-04-10T04:24:05;7.70;99.90
33269;DHT22;19640;50.944;5.260;2023-04-10T04:26:32;7.50;99.90
33269;DHT22;19640;50.944;5.260;2023-04-10T04:28:58;7.30;99.90
33269;DHT22;19640;50.944;5.260;2023-04-10T04:31:23;7.10;99.90
33269;DHT22;19640;50.944;5.260;2023-04-10T04:33:49;6.90;99.90
33269;DHT22;19640;50.944;5.260;2023-04-10T04:36:15;6.70;99.90
33269;DHT22;19640;50.944;5.260;2023-04-10T04:38:41;6.40;99.90
33269;DHT22;19640;50.944;5.260;2023-04-10T04:41:07;6.30;99.90
33269;DHT22;19640;50.944;5.260;2023-04-10T04:43:33;6.40;99.90
33269;DHT22;19640;50.944;5.260;2023-04-10T04:45:58;6.40;99.90
33269;DHT22;19640;50.944;5.260;2023-04-10T04:48:24;6.40;99.90
33269;DHT22;19640;50.944;5.260;2023-04-10T04:50:49;6.30;99.90
33269;DHT22;19640;50.944;5.260;2023-04-10T04:53:15;6.30;99.90
33269;DHT22;19640;50.944;5.260;2023-04-10T04:55:41;6.40;99.90
33269;DHT22;19640;50.944;5.260;2023-04-10T04:58:06;6.50;99.90
33269;DHT22;19640;50.944;5.260;2023-04-10T05:00:32;6.70;99.90
33269;DHT22;19640;50.944;5.260;2023-04-10T05:02:58;6.80;99.90
33269;DHT22;19640;50.944;5.260;2023-04-10T05:05:23;6.90;99.90
33269;DHT22;19640;50.944;5.260;2023-04-10T05:07:49;7.00;99.90
33269;DHT22;19640;50.944;5.260;2023-04-10T05:10:15;7.10;99.90
33269;DHT22;19640;50.944;5.260;2023-04-10T05:12:40;7.20;99.90
33269;DHT22;19640;50.944;5.260;2023-04-10T05:15:08;7.20;99.90
33269;DHT22;19640;50.944;5.260;2023-04-10T05:17:33;7.20;99.90
33269;DHT22;19640;50.944;5.260;2023-04-10T05:19:59;7.30;99.90
33269;DHT22;19640;50.944;5.260;2023-04-10T05:22:25;7.30;99.90
33269;DHT22;19640;50.944;5.260;2023-04-10T05:24:52;7.50;99.90
33269;DHT22;19640;50.944;5.260;2023-04-10T05:27:19;7.60;99.90
33269;DHT22;19640;50.944;5.260;2023-04-10T05:29:45;7.70;99.90
33269;DHT22;19640;50.944;5.260;2023-04-10T05:32:11;7.70;99.90
33269;DHT22;19640;50.944;5.260;2023-04-10T05:34:36;7.50;99.90
33269;DHT22;19640;50.944;5.260;2023-04-10T05:37:02;7.20;99.90
33269;DHT22;19640;50.944;5.260;2023-04-10T05:39:28;7.10;99.90
33269;DHT22;19640;50.944;5.260;2023-04-10T05:41:53;7.20;99.90
33269;DHT22;19640;50.944;5.260;2023-04-10T05:44:19;7.30;99.90
33269;DHT22;19640;50.944;5.260;2023-04-10T05:46:45;7.50;99.90
33269;DHT22;19640;50.944;5.260;2023-04-10T05:49:10;7.80;99.90
33269;DHT22;19640;50.944;5.260;2023-04-10T05:51:36;8.00;99.90
33269;DHT22;19640;50.944;5.260;2023-04-10T05:54:01;8.10;99.90
33269;DHT22;19640;50.944;5.260;2023-04-10T05:56:27;8.20;99.90
33269;DHT22;19640;50.944;5.260;2023-04-10T05:58:53;8.40;99.90
33269;DHT22;19640;50.944;5.260;2023-04-10T06:01:18;8.20;99.90
33269;DHT22;19640;50.944;5.260;2023-04-10T06:03:44;8.60;99.90
33269;DHT22;19640;50.944;5.260;2023-04-10T06:06:10;8.90;99.90
33269;DHT22;19640;50.944;5.260;2023-04-10T06:08:35;8.70;99.90
33269;DHT22;19640;50.944;5.260;2023-04-10T06:11:01;8.70;99.90
33269;DHT22;19640;50.944;5.260;2023-04-10T06:13:27;8.80;99.90
33269;DHT22;19640;50.944;5.260;2023-04-10T06:15:52;9.10;99.90
33269;DHT22;19640;50.944;5.260;2023-04-10T06:18:18;9.40;99.90
33269;DHT22;19640;50.944;5.260;2023-04-10T06:20:44;9.60;99.90
33269;DHT22;19640;50.944;5.260;2023-04-10T06:23:09;9.70;99.90
33269;DHT22;19640;50.944;5.260;2023-04-10T06:25:36;9.80;99.90
33269;DHT22;19640;50.944;5.260;2023-04-10T06:28:02;10.10;99.90
33269;DHT22;19640;50.944;5.260;2023-04-10T06:30:28;10.30;99.90
33269;DHT22;19640;50.944;5.260;2023-04-10T06:32:55;10.30;99.90
33269;DHT22;19640;50.944;5.260;2023-04-10T06:35:21;10.40;99.90
33269;DHT22;19640;50.944;5.260;2023-04-10T06:37:47;10.10;99.90
33269;DHT22;19640;50.944;5.260;2023-04-10T06:40:13;9.90;99.90
33269;DHT22;19640;50.944;5.260;2023-04-10T06:42:39;10.00;99.90
33269;DHT22;19640;50.944;5.260;2023-04-10T06:45:06;10.20;99.90
33269;DHT22;19640;50.944;5.260;2023-04-10T06:47:32;10.40;99.90
33269;DHT22;19640;50.944;5.260;2023-04-10T06:49:58;10.60;99.90
33269;DHT22;19640;50.944;5.260;2023-04-10T06:52:23;10.40;99.90
33269;DHT22;19640;50.944;5.260;2023-04-10T06:54:49;10.30;99.90
33269;DHT22;19640;50.944;5.260;2023-04-10T06:57:15;10.50;99.90
33269;DHT22;19640;50.944;5.260;2023-04-10T06:59:41;10.40;99.90
33269;DHT22;19640;50.944;5.260;2023-04-10T07:02:07;10.30;99.90
33269;DHT22;19640;50.944;5.260;2023-04-10T07:04:33;10.70;99.90
33269;DHT22;19640;50.944;5.260;2023-04-10T07:06:59;10.60;99.90
33269;DHT22;19640;50.944;5.260;2023-04-10T07:09:25;10.80;99.90
33269;DHT22;19640;50.944;5.260;2023-04-10T07:11:51;10.70;99.90
33269;DHT22;19640;50.944;5.260;2023-04-10T07:14:17;10.60;99.90
33269;DHT22;19640;50.944;5.260;2023-04-10T07:16:43;10.80;99.90
33269;DHT22;19640;50.944;5.260;2023-04-10T07:19:08;10.90;99.90
33269;DHT22;19640;50.944;5.260;2023-04-10T07:21:34;11.10;99.90
33269;DHT22;19640;50.944;5.260;2023-04-10T07:24:00;10.70;99.90
33269;DHT22;19640;50.944;5.260;2023-04-10T07:26:25;10.70;99.90
33269;DHT22;19640;50.944;5.260;2023-04-10T07:28:51;10.80;99.90
33269;DHT22;19640;50.944;5.260;2023-04-10T07:31:17;11.10;99.90
33269;DHT22;19640;50.944;5.260;2023-04-10T07:33:44;11.30;99.90
33269;DHT22;19640;50.944;5.260;2023-04-10T07:36:11;11.30;99.90
33269;DHT22;19640;50.944;5.260;2023-04-10T07:38:37;11.10;99.90
33269;DHT22;19640;50.944;5.260;2023-04-10T07:41:03;11.30;99.90
33269;DHT22;19640;50.944;5.260;2023-04-10T07:43:29;11.40;99.90
33269;DHT22;19640;50.944;5.260;2023-04-10T07:45:55;11.50;99.90
33269;DHT22;19640;50.944;5.260;2023-04-10T07:48:21;11.40;99.90
33269;DHT22;19640;50.944;5.260;2023-04-10T07:50:47;11.70;99.90
33269;DHT22;19640;50.944;5.260;2023-04-10T07:53:12;11.60;99.90
33269;DHT22;19640;50.944;5.260;2023-04-10T07:55:43;11.80;99.90
33269;DHT22;19640;50.944;5.260;2023-04-10T07:58:09;12.20;99.90
33269;DHT22;19640;50.944;5.260;2023-04-10T08:00:35;12.40;99.90
33269;DHT22;19640;50.944;5.260;2023-04-10T08:03:02;12.50;99.90
33269;DHT22;19640;50.944;5.260;2023-04-10T08:05:28;12.70;99.90
33269;DHT22;19640;50.944;5.260;2023-04-10T08:07:53;12.80;99.90
33269;DHT22;19640;50.944;5.260;2023-04-10T08:10:19;12.80;99.90
33269;DHT22;19640;50.944;5.260;2023-04-10T08:12:45;12.90;99.90
33269;DHT22;19640;50.944;5.260;2023-04-10T08:15:10;12.80;99.90
33269;DHT22;19640;50.944;5.260;2023-04-10T08:17:36;12.80;99.90
33269;DHT22;19640;50.944;5.260;2023-04-10T08:20:02;12.60;99.90
33269;DHT22;19640;50.944;5.260;2023-04-10T08:22:29;12.70;99.90
33269;DHT22;19640;50.944;5.260;2023-04-10T08:24:55;12.80;99.90
33269;DHT22;19640;50.944;5.260;2023-04-10T08:27:20;12.80;99.90
33269;DHT22;19640;50.944;5.260;2023-04-10T08:29:46;13.00;99.90
33269;DHT22;19640;50.944;5.260;2023-04-10T08:32:12;13.10;99.90
33269;DHT22;19640;50.944;5.260;2023-04-10T08:34:37;13.20;99.90
33269;DHT22;19640;50.944;5.260;2023-04-10T08:37:07;13.30;99.90
33269;DHT22;19640;50.944;5.260;2023-04-10T08:39:36;13.10;99.90
33269;DHT22;19640;50.944;5.260;2023-04-10T08:42:02;13.30;99.90
33269;DHT22;19640;50.944;5.260;2023-04-10T08:44:28;13.50;99.90
33269;DHT22;19640;50.944;5.260;2023-04-10T08:46:58;13.60;99.90
33269;DHT22;19640;50.944;5.260;2023-04-10T08:49:39;13.40;99.90
33269;DHT22;19640;50.944;5.260;2023-04-10T08:52:07;13.50;99.90
33269;DHT22;19640;50.944;5.260;2023-04-10T08:54:37;13.80;99.90
33269;DHT22;19640;50.944;5.260;2023-04-10T08:57:03;13.60;99.90
33269;DHT22;19640;50.944;5.260;2023-04-10T08:59:31;13.50;99.90
33269;DHT22;19640;50.944;5.260;2023-04-10T09:01:58;13.60;99.90
33269;DHT22;19640;50.944;5.260;2023-04-10T09:04:24;13.70;99.90
33269;DHT22;19640;50.944;5.260;2023-04-10T09:06:53;13.70;99.90
33269;DHT22;19640;50.944;5.260;2023-04-10T09:09:19;13.80;99.90
33269;DHT22;19640;50.944;5.260;2023-04-10T09:14:27;13.90;99.90
33269;DHT22;19640;50.944;5.260;2023-04-10T09:19:38;13.90;99.90
33269;DHT22;19640;50.944;5.260;2023-04-10T09:22:03;14.10;99.90
33269;DHT22;19640;50.944;5.260;2023-04-10T09:24:29;14.10;99.90
33269;DHT22;19640;50.944;5.260;2023-04-10T09:26:55;14.20;99.90
33269;DHT22;19640;50.944;5.260;2023-04-10T09:29:21;14.10;99.90
33269;DHT22;19640;50.944;5.260;2023-04-10T09:31:46;14.30;99.90
33269;DHT22;19640;50.944;5.260;2023-04-10T09:34:22;14.10;99.90
33269;DHT22;19640;50.944;5.260;2023-04-10T09:36:55;14.20;99.90
33269;DHT22;19640;50.944;5.260;2023-04-10T09:39:31;14.20;99.90
33269;DHT22;19640;50.944;5.260;2023-04-10T09:41:57;14.20;99.90
33269;DHT22;19640;50.944;5.260;2023-04-10T09:44:33;14.20;99.90
33269;DHT22;19640;50.944;5.260;2023-04-10T09:47:17;14.30;99.90
33269;DHT22;19640;50.944;5.260;2023-04-10T09:54:57;14.30;99.90
33269;DHT22;19640;50.944;5.260;2023-04-10T09:57:25;14.40;99.90
33269;DHT22;19640;50.944;5.260;2023-04-10T09:59:53;14.60;99.90
33269;DHT22;19640;50.944;5.260;2023-04-10T10:02:21;14.80;99.90
33269;DHT22;19640;50.944;5.260;2023-04-10T10:04:48;14.90;99.90
33269;DHT22;19640;50.944;5.260;2023-04-10T10:07:19;15.00;99.90
33269;DHT22;19640;50.944;5.260;2023-04-10T10:09:47;15.00;99.90
33269;DHT22;19640;50.944;5.260;2023-04-10T10:12:41;14.70;99.90
33269;DHT22;19640;50.944;5.260;2023-04-10T10:15:50;14.70;99.90
33269;DHT22;19640;50.944;5.260;2023-04-10T10:18:19;14.90;99.90
33269;DHT22;19640;50.944;5.260;2023-04-10T10:20:49;15.20;99.90
33269;DHT22;19640;50.944;5.260;2023-04-10T10:23:15;15.40;99.90
33269;DHT22;19640;50.944;5.260;2023-04-10T10:25:42;15.70;99.90
33269;DHT22;19640;50.944;5.260;2023-04-10T10:28:12;15.80;99.90
33269;DHT22;19640;50.944;5.260;2023-04-10T10:30:38;15.70;99.90
33269;DHT22;19640;50.944;5.260;2023-04-10T10:33:06;15.50;99.90
33269;DHT22;19640;50.944;5.260;2023-04-10T10:35:35;15.60;99.90
33269;DHT22;19640;50.944;5.260;2023-04-10T10:38:04;15.80;99.90
33269;DHT22;19640;50.944;5.260;2023-04-10T10:40:41;16.00;99.90
33269;DHT22;19640;50.944;5.260;2023-04-10T10:46:01;16.10;99.90
33269;DHT22;19640;50.944;5.260;2023-04-10T10:48:28;16.40;99.90
33269;DHT22;19640;50.944;5.260;2023-04-10T10:50:55;16.40;99.90
33269;DHT22;19640;50.944;5.260;2023-04-10T10:53:33;16.70;99.90
33269;DHT22;19640;50.944;5.260;2023-04-10T10:58:49;16.60;99.90
33269;DHT22;19640;50.944;5.260;2023-04-10T11:01:15;16.90;99.90
33269;DHT22;19640;50.944;5.260;2023-04-10T11:03:42;17.00;99.90
33269;DHT22;19640;50.944;5.260;2023-04-10T11:06:19;17.00;99.90
33269;DHT22;19640;50.944;5.260;2023-04-10T11:08:50;17.10;99.90
33269;DHT22;19640;50.944;5.260;2023-04-10T11:11:18;17.30;99.90
33269;DHT22;19640;50.944;5.260;2023-04-10T11:21:16;17.20;99.90
33269;DHT22;19640;50.944;5.260;2023-04-10T11:26:36;17.30;99.90
33269;DHT22;19640;50.944;5.260;2023-04-10T11:31:43;17.50;99.20
33269;DHT22;19640;50.944;5.260;2023-04-10T11:34:10;17.70;99.90
33269;DHT22;19640;50.944;5.260;2023-04-10T11:36:40;18.00;99.90
33269;DHT22;19640;50.944;5.260;2023-04-10T11:39:16;18.10;99.30
33269;DHT22;19640;50.944;5.260;2023-04-10T11:41:51;17.90;98.90
33269;DHT22;19640;50.944;5.260;2023-04-10T11:44:28;17.90;98.10
33269;DHT22;19640;50.944;5.260;2023-04-10T11:46:54;18.00;99.60
33269;DHT22;19640;50.944;5.260;2023-04-10T11:49:25;18.00;98.70
33269;DHT22;19640;50.944;5.260;2023-04-10T11:51:52;18.10;99.30
33269;DHT22;19640;50.944;5.260;2023-04-10T11:54:19;18.10;98.30
33269;DHT22;19640;50.944;5.260;2023-04-10T11:57:06;18.10;99.00
33269;DHT22;19640;50.944;5.260;2023-04-10T11:59:34;18.30;98.70
33269;DHT22;19640;50.944;5.260;2023-04-10T12:04:32;18.60;97.30
33269;DHT22;19640;50.944;5.260;2023-04-10T12:06:58;18.60;96.60
33269;DHT22;19640;50.944;5.260;2023-04-10T12:09:24;18.40;98.00
33269;DHT22;19640;50.944;5.260;2023-04-10T12:11:53;18.20;98.10
33269;DHT22;19640;50.944;5.260;2023-04-10T12:14:20;18.10;98.10
33269;DHT22;19640;50.944;5.260;2023-04-10T12:16:47;18.40;98.40
33269;DHT22;19640;50.944;5.260;2023-04-10T12:19:14;18.40;98.10
33269;DHT22;19640;50.944;5.260;2023-04-10T12:21:43;18.50;98.90
33269;DHT22;19640;50.944;5.260;2023-04-10T12:24:10;18.40;97.90
33269;DHT22;19640;50.944;5.260;2023-04-10T12:26:36;18.70;98.30
33269;DHT22;19640;50.944;5.260;2023-04-10T12:29:02;18.70;97.80
33269;DHT22;19640;50.944;5.260;2023-04-10T12:31:29;18.60;97.40
33269;DHT22;19640;50.944;5.260;2023-04-10T12:33:59;18.40;97.00
33269;DHT22;19640;50.944;5.260;2023-04-10T12:36:27;18.40;98.20
33269;DHT22;19640;50.944;5.260;2023-04-10T12:39:00;18.50;98.00
33269;DHT22;19640;50.944;5.260;2023-04-10T12:41:32;18.50;98.90
33269;DHT22;19640;50.944;5.260;2023-04-10T12:44:05;18.40;96.60
33269;DHT22;19640;50.944;5.260;2023-04-10T12:46:31;18.30;97.70
33269;DHT22;19640;50.944;5.260;2023-04-10T12:49:11;18.30;97.20
33269;DHT22;19640;50.944;5.260;2023-04-10T12:51:44;18.20;97.90
33269;DHT22;19640;50.944;5.260;2023-04-10T12:54:10;18.30;97.60
33269;DHT22;19640;50.944;5.260;2023-04-10T12:56:43;18.30;97.70
33269;DHT22;19640;50.944;5.260;2023-04-10T12:59:09;18.30;97.50
33269;DHT22;19640;50.944;5.260;2023-04-10T13:01:37;18.10;96.80
33269;DHT22;19640;50.944;5.260;2023-04-10T13:04:03;18.10;98.50
33269;DHT22;19640;50.944;5.260;2023-04-10T13:06:28;18.00;98.30
33269;DHT22;19640;50.944;5.260;2023-04-10T13:08:54;18.00;98.20
33269;DHT22;19640;50.944;5.260;2023-04-10T13:11:20;17.90;97.60
33269;DHT22;19640;50.944;5.260;2023-04-10T13:13:48;18.00;98.10
33269;DHT22;19640;50.944;5.260;2023-04-10T13:16:15;18.00;98.20
33269;DHT22;19640;50.944;5.260;2023-04-10T13:18:40;18.00;98.40
33269;DHT22;19640;50.944;5.260;2023-04-10T13:21:06;18.00;97.40
33269;DHT22;19640;50.944;5.260;2023-04-10T13:23:32;18.00;98.50
33269;DHT22;19640;50.944;5.260;2023-04-10T13:25:57;18.00;97.30
33269;DHT22;19640;50.944;5.260;2023-04-10T13:28:23;18.00;97.90
33269;DHT22;19640;50.944;5.260;2023-04-10T13:30:50;17.80;98.80
33269;DHT22;19640;50.944;5.260;2023-04-10T13:33:16;17.70;97.20
33269;DHT22;19640;50.944;5.260;2023-04-10T13:35:42;17.50;97.70
33269;DHT22;19640;50.944;5.260;2023-04-10T13:38:07;17.70;98.80
33269;DHT22;19640;50.944;5.260;2023-04-10T13:40:36;17.70;98.40
33269;DHT22;19640;50.944;5.260;2023-04-10T13:43:01;17.60;97.60
33269;DHT22;19640;50.944;5.260;2023-04-10T13:45:27;17.60;98.10
33269;DHT22;19640;50.944;5.260;2023-04-10T13:47:53;17.60;98.20
33269;DHT22;19640;50.944;5.260;2023-04-10T13:50:19;17.50;97.80
33269;DHT22;19640;50.944;5.260;2023-04-10T13:52:44;17.40;97.70
33269;DHT22;19640;50.944;5.260;2023-04-10T13:55:10;17.40;98.90
33269;DHT22;19640;50.944;5.260;2023-04-10T13:57:36;17.40;98.80
33269;DHT22;19640;50.944;5.260;2023-04-10T14:00:02;17.30;99.90
33269;DHT22;19640;50.944;5.260;2023-04-10T14:02:30;17.10;99.50
33269;DHT22;19640;50.944;5.260;2023-04-10T14:04:55;17.10;99.90
33269;DHT22;19640;50.944;5.260;2023-04-10T14:07:21;17.00;99.90
33269;DHT22;19640;50.944;5.260;2023-04-10T14:09:47;17.00;99.90
33269;DHT22;19640;50.944;5.260;2023-04-10T14:12:13;16.90;99.90
33269;DHT22;19640;50.944;5.260;2023-04-10T14:14:43;16.70;99.90
33269;DHT22;19640;50.944;5.260;2023-04-10T14:17:10;16.60;99.90
33269;DHT22;19640;50.944;5.260;2023-04-10T14:19:36;16.40;99.90
33269;DHT22;19640;50.944;5.260;2023-04-10T14:22:02;16.50;99.90
33269;DHT22;19640;50.944;5.260;2023-04-10T14:24:27;16.40;99.90
33269;DHT22;19640;50.944;5.260;2023-04-10T14:26:53;16.40;99.90
33269;DHT22;19640;50.944;5.260;2023-04-10T14:29:23;16.30;99.90
33269;DHT22;19640;50.944;5.260;2023-04-10T14:31:49;16.20;99.90
33269;DHT22;19640;50.944;5.260;2023-04-10T14:34:16;16.20;99.90
33269;DHT22;19640;50.944;5.260;2023-04-10T14:36:42;16.20;99.90
33269;DHT22;19640;50.944;5.260;2023-04-10T14:39:08;16.20;99.90
33269;DHT22;19640;50.944;5.260;2023-04-10T14:41:33;16.30;99.90
33269;DHT22;19640;50.944;5.260;2023-04-10T14:43:59;16.30;99.90
33269;DHT22;19640;50.944;5.260;2023-04-10T14:46:25;16.20;99.90
33269;DHT22;19640;50.944;5.260;2023-04-10T14:48:50;16.20;99.90
33269;DHT22;19640;50.944;5.260;2023-04-10T14:51:16;16.20;99.90
33269;DHT22;19640;50.944;5.260;2023-04-10T14:53:43;16.30;99.90
33269;DHT22;19640;50.944;5.260;2023-04-10T14:56:13;16.40;99.90
33269;DHT22;19640;50.944;5.260;2023-04-10T14:58:40;16.50;99.90
33269;DHT22;19640;50.944;5.260;2023-04-10T15:01:09;16.40;99.90
33269;DHT22;19640;50.944;5.260;2023-04-10T15:03:36;16.50;99.90
33269;DHT22;19640;50.944;5.260;2023-04-10T15:06:02;16.70;99.90
33269;DHT22;19640;50.944;5.260;2023-04-10T15:08:28;16.60;99.90
33269;DHT22;19640;50.944;5.260;2023-04-10T15:10:53;16.70;99.90
33269;DHT22;19640;50.944;5.260;2023-04-10T15:13:22;16.90;99.90
33269;DHT22;19640;50.944;5.260;2023-04-10T15:15:48;17.00;99.90
33269;DHT22;19640;50.944;5.260;2023-04-10T15:18:14;17.00;99.90
33269;DHT22;19640;50.944;5.260;2023-04-10T15:20:41;16.80;99.90
33269;DHT22;19640;50.944;5.260;2023-04-10T15:23:06;16.70;99.90
33269;DHT22;19640;50.944;5.260;2023-04-10T15:25:33;16.60;99.90
33269;DHT22;19640;50.944;5.260;2023-04-10T15:27:58;16.60;99.90
33269;DHT22;19640;50.944;5.260;2023-04-10T15:30:24;16.60;99.90
33269;DHT22;19640;50.944;5.260;2023-04-10T15:32:50;16.50;99.90
33269;DHT22;19640;50.944;5.260;2023-04-10T15:35:15;16.50;99.90
33269;DHT22;19640;50.944;5.260;2023-04-10T15:37:41;16.40;99.90
33269;DHT22;19640;50.944;5.260;2023-04-10T15:40:07;16.50;99.90
33269;DHT22;19640;50.944;5.260;2023-04-10T15:42:34;16.50;99.90
33269;DHT22;19640;50.944;5.260;2023-04-10T15:45:01;16.50;99.90
33269;DHT22;19640;50.944;5.260;2023-04-10T15:47:26;16.50;99.90
33269;DHT22;19640;50.944;5.260;2023-04-10T15:49:52;16.30;99.90
33269;DHT22;19640;50.944;5.260;2023-04-10T15:52:17;15.90;99.90
33269;DHT22;19640;50.944;5.260;2023-04-10T15:54:43;15.70;99.90
33269;DHT22;19640;50.944;5.260;2023-04-10T15:57:09;15.50;99.90
33269;DHT22;19640;50.944;5.260;2023-04-10T15:59:35;15.30;99.90
33269;DHT22;19640;50.944;5.260;2023-04-10T16:02:01;15.30;99.90
33269;DHT22;19640;50.944;5.260;2023-04-10T16:04:27;15.30;99.90
33269;DHT22;19640;50.944;5.260;2023-04-10T16:06:53;15.30;99.90
33269;DHT22;19640;50.944;5.260;2023-04-10T16:09:21;15.30;99.90
33269;DHT22;19640;50.944;5.260;2023-04-10T16:11:48;15.40;99.90
33269;DHT22;19640;50.944;5.260;2023-04-10T16:14:14;15.30;99.90
33269;DHT22;19640;50.944;5.260;2023-04-10T16:16:39;15.40;99.90
33269;DHT22;19640;50.944;5.260;2023-04-10T16:19:05;15.40;99.90